createdAt,value
2019-03-15T00:01:49.474Z,1.90
2019-03-15T00:06:52.956Z,1.63
2019-03-15T00:11:59.235Z,2.43
2019-03-15T00:17:02.759Z,2.10
2019-03-15T00:22:07.915Z,2.10
2019-03-15T00:27:11.183Z,1.70
2019-03-15T00:32:14.831Z,2.20
2019-03-15T00:37:18.355Z,2.13
2019-03-15T00:42:21.637Z,2.00
2019-03-15T00:47:25.161Z,2.53
2019-03-15T00:52:28.437Z,2.67
2019-03-15T00:57:31.710Z,2.93
2019-03-15T01:02:35.031Z,2.80
2019-03-15T01:07:38.278Z,2.37
2019-03-15T01:12:41.569Z,1.57
2019-03-15T01:17:44.835Z,2.50
2019-03-15T01:22:48.367Z,2.90
2019-03-15T01:27:51.645Z,3.03
2019-03-15T01:32:55.161Z,2.33
2019-03-15T01:37:58.440Z,2.67
2019-03-15T01:43:01.719Z,3.13
2019-03-15T01:48:05.293Z,2.33
2019-03-15T01:53:08.574Z,2.60
2019-03-15T01:58:12.250Z,3.90
2019-03-15T02:03:15.781Z,2.40
2019-03-15T02:08:19.066Z,2.80
2019-03-15T02:13:22.341Z,3.00
2019-03-15T02:18:26.061Z,3.13
2019-03-15T02:23:29.346Z,2.63
2019-03-15T02:28:32.659Z,3.37
2019-03-15T02:33:35.958Z,2.90
2019-03-15T02:38:39.372Z,2.97
2019-03-15T02:43:43.060Z,3.27
2019-03-15T02:48:46.314Z,2.83
2019-03-15T02:53:49.608Z,3.23
2019-03-15T02:58:54.033Z,2.57
2019-03-15T03:03:57.604Z,2.60
2019-03-15T03:09:01.133Z,2.70
2019-03-15T03:14:04.592Z,2.73
2019-03-15T03:19:08.016Z,2.53
2019-03-15T03:24:11.327Z,2.40
2019-03-15T03:29:14.859Z,2.37
2019-03-15T03:34:18.375Z,2.40
2019-03-15T03:39:21.901Z,2.13
2019-03-15T03:44:25.438Z,2.53
2019-03-15T03:49:28.715Z,2.10
2019-03-15T03:54:32.404Z,2.60
2019-03-15T03:59:35.912Z,3.30
2019-03-15T04:04:39.433Z,2.37
2019-03-15T04:09:42.691Z,2.10
2019-03-15T04:14:46.209Z,2.30
2019-03-15T04:19:50.507Z,2.50
2019-03-15T04:24:53.932Z,2.90
2019-03-15T04:29:57.215Z,2.43
2019-03-15T04:35:00.743Z,2.40
2019-03-15T04:40:06.833Z,1.80
2019-03-15T04:45:10.449Z,2.13
2019-03-15T04:50:13.982Z,2.20
2019-03-15T04:55:17.252Z,1.43
2019-03-15T05:00:20.772Z,2.10
2019-03-15T05:05:24.293Z,2.50
2019-03-15T05:10:27.574Z,1.73
2019-03-15T05:15:30.847Z,2.00
2019-03-15T05:20:34.365Z,1.93
2019-03-15T05:25:37.930Z,2.70
2019-03-15T05:30:41.213Z,1.77
2019-03-15T05:35:44.473Z,2.40
2019-03-15T05:40:47.778Z,2.40
2019-03-15T05:45:51.310Z,2.73
2019-03-15T05:50:54.815Z,1.80
2019-03-15T05:55:58.363Z,2.13
2019-03-15T06:01:01.651Z,1.53
2019-03-15T06:06:04.931Z,2.03
2019-03-15T06:11:08.622Z,2.40
2019-03-15T06:16:11.937Z,3.03
2019-03-15T06:21:15.170Z,3.20
2019-03-15T06:26:19.413Z,2.83
2019-03-15T06:31:22.927Z,2.67
2019-03-15T06:36:26.205Z,2.50
2019-03-15T06:41:29.482Z,3.17
2019-03-15T06:46:32.995Z,2.77
2019-03-15T06:51:36.511Z,2.43
2019-03-15T06:56:40.422Z,2.60
2019-03-15T07:01:44.132Z,3.17
2019-03-15T07:06:47.467Z,3.60
2019-03-15T07:11:50.754Z,4.90
2019-03-15T07:16:54.033Z,4.17
2019-03-15T07:21:57.541Z,4.27
2019-03-15T07:27:12.321Z,3.40
2019-03-15T07:32:06.287Z,3.73
2019-03-15T07:37:09.561Z,3.73
2019-03-15T07:42:13.071Z,4.37
2019-03-15T07:47:16.583Z,4.73
2019-03-15T07:52:19.865Z,3.97
2019-03-15T07:57:23.149Z,3.90
2019-03-15T08:02:26.671Z,5.07
2019-03-15T08:07:37.791Z,5.10
2019-03-15T08:12:38.873Z,4.70
2019-03-15T08:17:42.188Z,4.33
2019-03-15T08:22:45.713Z,4.27
2019-03-15T08:27:49.000Z,4.73
2019-03-15T08:32:52.270Z,4.13
2019-03-15T08:37:55.783Z,4.10
2019-03-15T08:42:59.306Z,4.70
2019-03-15T08:48:02.608Z,4.53
2019-03-15T08:53:06.619Z,5.00
2019-03-15T08:58:15.799Z,3.30
2019-03-15T09:03:27.340Z,3.40
2019-03-15T09:08:20.374Z,3.30
2019-03-15T09:13:23.649Z,3.30
2019-03-15T09:18:26.949Z,3.03
2019-03-15T09:23:30.226Z,2.37
2019-03-15T09:28:33.765Z,2.53
2019-03-15T09:33:37.033Z,2.83
2019-03-15T09:38:40.597Z,2.63
2019-03-15T09:43:45.564Z,2.77
2019-03-15T09:48:48.982Z,2.63
2019-03-15T09:53:52.265Z,4.97
2019-03-15T09:58:55.544Z,3.23
2019-03-15T10:03:58.850Z,2.97
2019-03-15T10:09:02.367Z,3.33
2019-03-15T10:14:05.887Z,4.53
2019-03-15T10:19:09.390Z,4.20
2019-03-15T10:24:15.558Z,4.30
2019-03-15T10:29:19.710Z,4.40
2019-03-15T10:34:22.940Z,5.67
2019-03-15T10:39:26.209Z,5.43
2019-03-15T10:44:29.727Z,5.50
2019-03-15T10:49:33.049Z,5.67
2019-03-15T10:54:36.328Z,6.07
2019-03-15T10:59:39.851Z,6.97
2019-03-15T11:04:43.932Z,6.37
2019-03-15T11:09:47.472Z,7.43
2019-03-15T11:14:50.768Z,8.27
2019-03-15T11:19:54.021Z,8.67
2019-03-15T11:24:59.156Z,9.47
2019-03-15T11:30:02.697Z,10.73
2019-03-15T11:35:08.158Z,10.27
2019-03-15T11:40:19.457Z,11.57
2019-03-15T11:45:22.848Z,9.07
2019-03-15T11:50:26.312Z,12.13
2019-03-15T11:55:29.915Z,10.47
2019-03-15T12:00:33.449Z,10.27
2019-03-15T12:05:36.727Z,8.73
2019-03-15T12:10:40.252Z,9.60
2019-03-15T12:15:43.545Z,9.60
2019-03-15T12:20:49.294Z,10.83
2019-03-15T12:25:51.840Z,12.87
2019-03-15T12:30:55.188Z,13.17
2019-03-15T12:35:58.478Z,14.23
2019-03-15T12:41:02.005Z,13.30
2019-03-15T12:46:05.525Z,13.67
2019-03-15T12:51:08.806Z,13.33
2019-03-15T12:56:12.098Z,12.43
2019-03-15T13:01:15.614Z,13.07
2019-03-15T13:06:19.147Z,12.17
2019-03-15T13:11:22.532Z,10.63
2019-03-15T13:16:25.807Z,10.20
2019-03-15T13:21:29.089Z,10.47
2019-03-15T13:26:32.603Z,9.63
2019-03-15T13:31:35.884Z,7.93
2019-03-15T13:36:39.161Z,7.63
2019-03-15T13:41:42.745Z,6.40
2019-03-15T13:46:46.034Z,6.20
2019-03-15T13:51:49.305Z,6.33
2019-03-15T13:56:52.835Z,6.07
2019-03-15T14:01:56.117Z,6.33
2019-03-15T14:06:59.402Z,6.47
2019-03-15T14:12:02.921Z,6.80
2019-03-15T14:17:06.192Z,5.97
2019-03-15T14:22:09.729Z,5.87
2019-03-15T14:27:13.021Z,5.90
2019-03-15T14:32:16.535Z,5.47
2019-03-15T14:37:19.862Z,4.37
2019-03-15T14:42:23.400Z,4.83
2019-03-15T14:47:26.715Z,4.50
2019-03-15T14:52:30.245Z,4.27
2019-03-15T14:57:33.732Z,5.13
2019-03-15T15:02:37.082Z,4.90
2019-03-15T15:07:40.407Z,3.90
2019-03-15T15:12:43.690Z,4.20
2019-03-15T15:17:47.022Z,4.17
2019-03-15T15:22:50.331Z,4.30
2019-03-15T15:28:03.507Z,4.37
2019-03-15T15:32:58.887Z,4.40
2019-03-15T15:38:02.406Z,4.40
2019-03-15T15:43:05.686Z,3.87
2019-03-15T15:48:08.967Z,3.80
2019-03-15T15:53:12.475Z,3.57
2019-03-15T15:58:18.214Z,6.30
2019-03-15T16:03:21.283Z,7.83
2019-03-15T16:08:24.801Z,4.57
2019-03-15T16:13:28.131Z,3.70
2019-03-15T16:18:31.767Z,3.80
2019-03-15T16:23:35.057Z,3.10
2019-03-15T16:28:38.338Z,3.93
2019-03-15T16:33:42.435Z,4.37
2019-03-15T16:38:45.972Z,3.73
2019-03-15T16:43:49.243Z,2.90
2019-03-15T16:48:52.521Z,1.90
2019-03-15T16:53:55.802Z,2.00
2019-03-15T16:58:59.333Z,1.20
2019-03-15T17:04:02.604Z,1.40
2019-03-15T17:09:07.131Z,1.63
2019-03-15T17:14:10.409Z,1.67
2019-03-15T17:19:13.931Z,2.03
2019-03-15T17:24:17.211Z,2.60
2019-03-15T17:29:20.493Z,2.53
2019-03-15T17:34:24.014Z,1.70
2019-03-15T17:39:27.587Z,1.30
2019-03-15T17:44:30.920Z,1.20
2019-03-15T17:49:34.216Z,1.17
2019-03-15T17:54:37.489Z,1.10
2019-03-15T17:59:40.769Z,1.07
2019-03-15T18:04:44.051Z,1.60
2019-03-15T18:09:47.328Z,1.33
2019-03-15T18:14:50.618Z,1.63
2019-03-15T18:19:54.158Z,2.07
2019-03-15T18:24:57.434Z,2.30
2019-03-15T18:30:00.709Z,1.60
2019-03-15T18:35:05.725Z,2.13
2019-03-15T18:40:16.576Z,1.90
2019-03-15T18:45:20.095Z,1.93
2019-03-15T18:50:24.675Z,2.07
2019-03-15T18:55:27.937Z,2.00
2019-03-15T19:00:31.222Z,1.97
2019-03-15T19:05:34.509Z,1.73
2019-03-15T19:10:38.738Z,2.10
2019-03-15T19:15:43.814Z,1.50
2019-03-15T19:20:47.432Z,1.57
2019-03-15T19:25:50.769Z,2.00
2019-03-15T19:30:54.056Z,2.23
2019-03-15T19:35:57.342Z,1.97
2019-03-15T19:41:00.903Z,2.47
2019-03-15T19:46:04.499Z,1.60
2019-03-15T19:51:07.780Z,1.63
2019-03-15T19:56:11.454Z,2.50
2019-03-15T20:01:14.737Z,2.03
2019-03-15T20:06:18.036Z,2.20
2019-03-15T20:11:21.557Z,1.47
2019-03-15T20:16:25.125Z,2.00
2019-03-15T20:21:28.655Z,2.13
2019-03-15T20:26:31.929Z,1.90
2019-03-15T20:31:35.446Z,1.70
2019-03-15T20:36:38.726Z,1.90
2019-03-15T20:41:42.252Z,1.53
2019-03-15T20:46:46.560Z,1.77
2019-03-15T20:51:49.850Z,1.53
2019-03-15T20:56:53.375Z,1.40
2019-03-15T21:01:56.910Z,1.43
2019-03-15T21:07:00.458Z,1.40
2019-03-15T21:12:03.985Z,1.87
2019-03-15T21:17:07.270Z,1.47
2019-03-15T21:22:10.543Z,1.40
2019-03-15T21:27:13.828Z,1.73
2019-03-15T21:32:17.219Z,1.27
2019-03-15T21:37:20.809Z,1.50
2019-03-15T21:42:24.087Z,1.40
2019-03-15T21:47:27.378Z,1.37
2019-03-15T21:52:30.899Z,2.00
2019-03-15T21:57:34.177Z,1.57
2019-03-15T22:02:37.450Z,1.83
2019-03-15T22:07:40.729Z,1.50
2019-03-15T22:12:44.177Z,2.07
2019-03-15T22:17:47.549Z,1.60
2019-03-15T22:22:50.919Z,1.80
2019-03-15T22:27:54.195Z,1.80
2019-03-15T22:32:57.807Z,2.10
2019-03-15T22:38:01.073Z,1.63
2019-03-15T22:43:04.368Z,1.73
2019-03-15T22:48:07.645Z,1.97
2019-03-15T22:53:11.177Z,1.47
2019-03-15T22:58:14.524Z,1.37
2019-03-15T23:03:18.059Z,0.97
2019-03-15T23:08:21.600Z,1.97
2019-03-15T23:13:25.118Z,1.50
2019-03-15T23:18:28.645Z,1.27
2019-03-15T23:23:32.185Z,1.43
2019-03-15T23:28:35.709Z,1.80
2019-03-15T23:33:39.008Z,1.50
2019-03-15T23:38:42.543Z,1.43
2019-03-15T23:43:45.826Z,1.60
2019-03-15T23:48:49.113Z,1.97
2019-03-15T23:53:52.452Z,2.37
2019-03-15T23:58:55.981Z,1.63
